sensor_id;sensor_type;location;lat;lon;timestamp;temperature;humidity
37050;DHT22;22958;51.232;6.826;2023-05-31T00:02:16;14.20;99.90
37050;DHT22;22958;51.232;6.826;2023-05-31T00:04:42;14.20;99.90
37050;DHT22;22958;51.232;6.826;2023-05-31T00:07:08;14.20;99.90
37050;DHT22;22958;51.232;6.826;2023-05-31T00:09:33;14.20;99.90
37050;DHT22;22958;51.232;6.826;2023-05-31T00:11:59;14.20;99.90
37050;DHT22;22958;51.232;6.826;2023-05-31T00:14:26;14.20;99.90
37050;DHT22;22958;51.232;6.826;2023-05-31T00:16:52;14.10;99.90
37050;DHT22;22958;51.232;6.826;2023-05-31T00:19:18;14.10;99.90
37050;DHT22;22958;51.232;6.826;2023-05-31T00:21:44;14.10;99.90
37050;DHT22;22958;51.232;6.826;2023-05-31T00:24:11;14.10;99.90
37050;DHT22;22958;51.232;6.826;2023-05-31T00:26:36;14.00;99.90
37050;DHT22;22958;51.232;6.826;2023-05-31T00:29:02;14.00;99.90
37050;DHT22;22958;51.232;6.826;2023-05-31T00:31:27;14.00;99.90
37050;DHT22;22958;51.232;6.826;2023-05-31T00:33:53;14.00;99.90
37050;DHT22;22958;51.232;6.826;2023-05-31T00:36:19;14.00;99.90
37050;DHT22;22958;51.232;6.826;2023-05-31T00:38:44;14.00;99.90
37050;DHT22;22958;51.232;6.826;2023-05-31T00:41:10;14.00;99.90
37050;DHT22;22958;51.232;6.826;2023-05-31T00:43:36;14.00;99.90
37050;DHT22;22958;51.232;6.826;2023-05-31T00:46:01;13.90;99.90
37050;DHT22;22958;51.232;6.826;2023-05-31T00:48:28;13.90;99.90
37050;DHT22;22958;51.232;6.826;2023-05-31T00:50:54;13.90;99.90
37050;DHT22;22958;51.232;6.826;2023-05-31T00:53:20;13.90;99.90
37050;DHT22;22958;51.232;6.826;2023-05-31T00:55:47;13.90;99.90
37050;DHT22;22958;51.232;6.826;2023-05-31T00:58:13;13.80;99.90
37050;DHT22;22958;51.232;6.826;2023-05-31T01:00:39;13.80;99.90
37050;DHT22;22958;51.232;6.826;2023-05-31T01:03:04;13.90;99.90
37050;DHT22;22958;51.232;6.826;2023-05-31T01:05:34;13.90;99.90
37050;DHT22;22958;51.232;6.826;2023-05-31T01:08:00;14.00;99.90
37050;DHT22;22958;51.232;6.826;2023-05-31T01:10:27;13.80;99.90
37050;DHT22;22958;51.232;6.826;2023-05-31T01:13:02;13.80;99.90
37050;DHT22;22958;51.232;6.826;2023-05-31T01:15:41;13.70;99.90
37050;DHT22;22958;51.232;6.826;2023-05-31T01:18:26;13.70;99.90
37050;DHT22;22958;51.232;6.826;2023-05-31T01:20:57;13.70;99.90
37050;DHT22;22958;51.232;6.826;2023-05-31T01:23:34;13.60;99.90
37050;DHT22;22958;51.232;6.826;2023-05-31T01:28:49;13.60;99.90
37050;DHT22;22958;51.232;6.826;2023-05-31T01:31:18;13.60;99.90
37050;DHT22;22958;51.232;6.826;2023-05-31T01:33:45;13.60;99.90
37050;DHT22;22958;51.232;6.826;2023-05-31T01:36:11;13.60;99.90
37050;DHT22;22958;51.232;6.826;2023-05-31T01:38:36;13.60;99.90
37050;DHT22;22958;51.232;6.826;2023-05-31T01:41:02;13.60;99.90
37050;DHT22;22958;51.232;6.826;2023-05-31T01:43:31;13.60;99.90
37050;DHT22;22958;51.232;6.826;2023-05-31T01:45:58;13.60;99.90
37050;DHT22;22958;51.232;6.826;2023-05-31T01:48:24;13.60;99.90
37050;DHT22;22958;51.232;6.826;2023-05-31T01:50:51;13.60;99.90
37050;DHT22;22958;51.232;6.826;2023-05-31T01:53:17;13.60;99.90
37050;DHT22;22958;51.232;6.826;2023-05-31T01:55:43;13.60;99.90
37050;DHT22;22958;51.232;6.826;2023-05-31T01:58:10;13.60;99.90
37050;DHT22;22958;51.232;6.826;2023-05-31T02:00:37;13.60;99.90
37050;DHT22;22958;51.232;6.826;2023-05-31T02:03:04;13.60;99.90
37050;DHT22;22958;51.232;6.826;2023-05-31T02:05:30;13.50;99.90
37050;DHT22;22958;51.232;6.826;2023-05-31T02:07:55;13.60;99.90
37050;DHT22;22958;51.232;6.826;2023-05-31T02:10:21;13.50;99.90
37050;DHT22;22958;51.232;6.826;2023-05-31T02:12:47;13.60;99.90
37050;DHT22;22958;51.232;6.826;2023-05-31T02:15:16;13.60;99.90
37050;DHT22;22958;51.232;6.826;2023-05-31T02:17:45;13.50;99.90
37050;DHT22;22958;51.232;6.826;2023-05-31T02:20:13;13.50;99.90
37050;DHT22;22958;51.232;6.826;2023-05-31T02:22:42;13.50;99.90
37050;DHT22;22958;51.232;6.826;2023-05-31T02:25:12;13.50;99.90
37050;DHT22;22958;51.232;6.826;2023-05-31T02:27:39;13.40;99.90
37050;DHT22;22958;51.232;6.826;2023-05-31T02:30:05;13.40;99.90
37050;DHT22;22958;51.232;6.826;2023-05-31T02:32:32;13.50;99.90
37050;DHT22;22958;51.232;6.826;2023-05-31T02:35:03;13.40;99.90
37050;DHT22;22958;51.232;6.826;2023-05-31T02:37:29;13.40;99.90
37050;DHT22;22958;51.232;6.826;2023-05-31T02:39:55;13.40;99.90
37050;DHT22;22958;51.232;6.826;2023-05-31T02:42:21;13.40;99.90
37050;DHT22;22958;51.232;6.826;2023-05-31T02:44:46;13.40;99.90
37050;DHT22;22958;51.232;6.826;2023-05-31T02:47:12;13.40;99.90
37050;DHT22;22958;51.232;6.826;2023-05-31T02:49:37;13.40;99.90
37050;DHT22;22958;51.232;6.826;2023-05-31T02:52:03;13.30;99.90
37050;DHT22;22958;51.232;6.826;2023-05-31T02:54:29;13.30;99.90
37050;DHT22;22958;51.232;6.826;2023-05-31T02:56:54;13.20;99.90
37050;DHT22;22958;51.232;6.826;2023-05-31T02:59:20;13.20;99.90
37050;DHT22;22958;51.232;6.826;2023-05-31T03:01:45;13.20;99.90
37050;DHT22;22958;51.232;6.826;2023-05-31T03:04:11;13.20;99.90
37050;DHT22;22958;51.232;6.826;2023-05-31T03:06:37;13.20;99.90
37050;DHT22;22958;51.232;6.826;2023-05-31T03:09:05;13.20;99.90
37050;DHT22;22958;51.232;6.826;2023-05-31T03:11:31;13.20;99.90
37050;DHT22;22958;51.232;6.826;2023-05-31T03:13:56;13.20;99.90
37050;DHT22;22958;51.232;6.826;2023-05-31T03:16:22;13.20;99.90
37050;DHT22;22958;51.232;6.826;2023-05-31T03:18:48;13.20;99.90
37050;DHT22;22958;51.232;6.826;2023-05-31T03:21:14;13.10;99.90
37050;DHT22;22958;51.232;6.826;2023-05-31T03:23:40;13.10;99.90
37050;DHT22;22958;51.232;6.826;2023-05-31T03:26:06;13.10;99.90
37050;DHT22;22958;51.232;6.826;2023-05-31T03:28:31;13.10;99.90
37050;DHT22;22958;51.232;6.826;2023-05-31T03:30:57;13.10;99.90
37050;DHT22;22958;51.232;6.826;2023-05-31T03:33:23;13.10;99.90
37050;DHT22;22958;51.232;6.826;2023-05-31T03:35:49;13.00;99.90
37050;DHT22;22958;51.232;6.826;2023-05-31T03:38:14;13.10;99.90
37050;DHT22;22958;51.232;6.826;2023-05-31T03:40:40;13.10;99.90
37050;DHT22;22958;51.232;6.826;2023-05-31T03:43:06;13.00;99.90
37050;DHT22;22958;51.232;6.826;2023-05-31T03:45:31;13.00;99.90
37050;DHT22;22958;51.232;6.826;2023-05-31T03:47:57;13.00;99.90
37050;DHT22;22958;51.232;6.826;2023-05-31T03:50:22;13.00;99.90
37050;DHT22;22958;51.232;6.826;2023-05-31T03:52:48;13.00;99.90
37050;DHT22;22958;51.232;6.826;2023-05-31T03:55:13;13.10;99.90
37050;DHT22;22958;51.232;6.826;2023-05-31T03:57:39;13.00;99.90
37050;DHT22;22958;51.232;6.826;2023-05-31T04:00:05;13.00;99.90
37050;DHT22;22958;51.232;6.826;2023-05-31T04:02:31;13.00;99.90
37050;DHT22;22958;51.232;6.826;2023-05-31T04:04:57;13.00;99.90
37050;DHT22;22958;51.232;6.826;2023-05-31T04:07:22;13.00;99.90
37050;DHT22;22958;51.232;6.826;2023-05-31T04:09:48;13.10;99.90
37050;DHT22;22958;51.232;6.826;2023-05-31T04:12:14;13.10;99.90
37050;DHT22;22958;51.232;6.826;2023-05-31T04:14:39;13.10;99.90
37050;DHT22;22958;51.232;6.826;2023-05-31T04:17:05;13.10;99.90
37050;DHT22;22958;51.232;6.826;2023-05-31T04:19:31;13.20;99.90
37050;DHT22;22958;51.232;6.826;2023-05-31T04:21:56;13.20;99.90
37050;DHT22;22958;51.232;6.826;2023-05-31T04:24:22;13.30;99.90
37050;DHT22;22958;51.232;6.826;2023-05-31T04:26:47;13.30;99.90
37050;DHT22;22958;51.232;6.826;2023-05-31T04:29:13;13.30;99.90
37050;DHT22;22958;51.232;6.826;2023-05-31T04:31:39;13.40;99.90
37050;DHT22;22958;51.232;6.826;2023-05-31T04:34:05;13.40;99.90
37050;DHT22;22958;51.232;6.826;2023-05-31T04:36:31;13.40;99.90
37050;DHT22;22958;51.232;6.826;2023-05-31T04:39:02;13.50;99.90
37050;DHT22;22958;51.232;6.826;2023-05-31T04:41:28;13.50;99.90
37050;DHT22;22958;51.232;6.826;2023-05-31T04:43:54;13.50;99.90
37050;DHT22;22958;51.232;6.826;2023-05-31T04:46:19;13.60;99.90
37050;DHT22;22958;51.232;6.826;2023-05-31T04:48:47;13.70;99.90
37050;DHT22;22958;51.232;6.826;2023-05-31T04:51:16;13.70;99.90
37050;DHT22;22958;51.232;6.826;2023-05-31T04:53:41;13.80;99.90
37050;DHT22;22958;51.232;6.826;2023-05-31T04:56:07;13.80;99.90
37050;DHT22;22958;51.232;6.826;2023-05-31T04:58:35;13.90;99.90
37050;DHT22;22958;51.232;6.826;2023-05-31T05:01:01;13.90;99.90
37050;DHT22;22958;51.232;6.826;2023-05-31T05:03:27;14.00;99.90
37050;DHT22;22958;51.232;6.826;2023-05-31T05:05:55;14.10;99.90
37050;DHT22;22958;51.232;6.826;2023-05-31T05:08:21;14.20;99.90
37050;DHT22;22958;51.232;6.826;2023-05-31T05:10:47;14.20;99.90
37050;DHT22;22958;51.232;6.826;2023-05-31T05:13:13;14.40;99.90
37050;DHT22;22958;51.232;6.826;2023-05-31T05:15:38;14.40;99.90
37050;DHT22;22958;51.232;6.826;2023-05-31T05:18:04;14.50;99.90
37050;DHT22;22958;51.232;6.826;2023-05-31T05:20:31;14.50;99.90
37050;DHT22;22958;51.232;6.826;2023-05-31T05:22:56;14.50;99.90
37050;DHT22;22958;51.232;6.826;2023-05-31T05:25:22;14.60;99.90
37050;DHT22;22958;51.232;6.826;2023-05-31T05:27:48;14.70;99.90
37050;DHT22;22958;51.232;6.826;2023-05-31T05:30:14;14.70;99.90
37050;DHT22;22958;51.232;6.826;2023-05-31T05:32:39;14.80;99.90
37050;DHT22;22958;51.232;6.826;2023-05-31T05:35:05;14.90;99.90
37050;DHT22;22958;51.232;6.826;2023-05-31T05:37:31;15.10;99.90
37050;DHT22;22958;51.232;6.826;2023-05-31T05:39:57;15.20;99.90
37050;DHT22;22958;51.232;6.826;2023-05-31T05:42:24;15.20;99.90
37050;DHT22;22958;51.232;6.826;2023-05-31T05:44:50;15.30;99.90
37050;DHT22;22958;51.232;6.826;2023-05-31T05:47:15;15.30;99.90
37050;DHT22;22958;51.232;6.826;2023-05-31T05:49:41;15.20;99.90
37050;DHT22;22958;51.232;6.826;2023-05-31T05:52:07;15.20;99.90
37050;DHT22;22958;51.232;6.826;2023-05-31T05:54:32;15.40;99.90
37050;DHT22;22958;51.232;6.826;2023-05-31T05:56:59;15.60;99.90
37050;DHT22;22958;51.232;6.826;2023-05-31T05:59:24;15.80;99.90
37050;DHT22;22958;51.232;6.826;2023-05-31T06:01:50;15.90;99.90
37050;DHT22;22958;51.232;6.826;2023-05-31T06:04:15;15.90;99.90
37050;DHT22;22958;51.232;6.826;2023-05-31T06:06:41;15.90;99.90
37050;DHT22;22958;51.232;6.826;2023-05-31T06:09:06;16.10;99.90
37050;DHT22;22958;51.232;6.826;2023-05-31T06:11:32;16.20;99.90
37050;DHT22;22958;51.232;6.826;2023-05-31T06:13:58;16.30;99.90
37050;DHT22;22958;51.232;6.826;2023-05-31T06:16:24;16.50;99.90
37050;DHT22;22958;51.232;6.826;2023-05-31T06:18:49;16.60;99.90
37050;DHT22;22958;51.232;6.826;2023-05-31T06:21:16;16.80;99.90
37050;DHT22;22958;51.232;6.826;2023-05-31T06:23:41;16.90;99.90
37050;DHT22;22958;51.232;6.826;2023-05-31T06:26:07;17.00;99.90
37050;DHT22;22958;51.232;6.826;2023-05-31T06:28:32;17.10;99.90
37050;DHT22;22958;51.232;6.826;2023-05-31T06:30:58;17.00;99.90
37050;DHT22;22958;51.232;6.826;2023-05-31T06:33:26;17.10;99.90
37050;DHT22;22958;51.232;6.826;2023-05-31T06:35:51;17.20;99.90
37050;DHT22;22958;51.232;6.826;2023-05-31T06:38:17;17.10;99.90
37050;DHT22;22958;51.232;6.826;2023-05-31T06:40:43;17.20;99.90
37050;DHT22;22958;51.232;6.826;2023-05-31T06:43:09;17.50;99.90
37050;DHT22;22958;51.232;6.826;2023-05-31T06:45:35;17.70;99.90
37050;DHT22;22958;51.232;6.826;2023-05-31T06:48:01;17.70;99.90
37050;DHT22;22958;51.232;6.826;2023-05-31T06:50:27;17.90;99.90
37050;DHT22;22958;51.232;6.826;2023-05-31T06:52:52;17.90;99.90
37050;DHT22;22958;51.232;6.826;2023-05-31T06:55:18;18.00;99.90
37050;DHT22;22958;51.232;6.826;2023-05-31T06:57:43;18.10;99.90
37050;DHT22;22958;51.232;6.826;2023-05-31T07:00:09;18.30;99.90
37050;DHT22;22958;51.232;6.826;2023-05-31T07:02:35;18.40;99.90
37050;DHT22;22958;51.232;6.826;2023-05-31T07:05:01;18.40;99.90
37050;DHT22;22958;51.232;6.826;2023-05-31T07:07:27;18.50;99.90
37050;DHT22;22958;51.232;6.826;2023-05-31T07:09:52;18.60;99.90
37050;DHT22;22958;51.232;6.826;2023-05-31T07:12:18;18.80;99.90
37050;DHT22;22958;51.232;6.826;2023-05-31T07:14:43;18.90;99.90
37050;DHT22;22958;51.232;6.826;2023-05-31T07:17:09;19.00;99.90
37050;DHT22;22958;51.232;6.826;2023-05-31T07:19:47;19.10;99.90
37050;DHT22;22958;51.232;6.826;2023-05-31T07:22:17;19.20;99.90
37050;DHT22;22958;51.232;6.826;2023-05-31T07:24:43;19.10;99.90
37050;DHT22;22958;51.232;6.826;2023-05-31T07:27:09;19.40;99.90
37050;DHT22;22958;51.232;6.826;2023-05-31T07:29:36;19.60;99.90
37050;DHT22;22958;51.232;6.826;2023-05-31T07:32:01;19.80;99.90
37050;DHT22;22958;51.232;6.826;2023-05-31T07:34:27;19.90;99.90
37050;DHT22;22958;51.232;6.826;2023-05-31T07:36:53;20.00;99.90
37050;DHT22;22958;51.232;6.826;2023-05-31T07:39:21;20.20;99.90
37050;DHT22;22958;51.232;6.826;2023-05-31T07:41:47;20.00;99.90
37050;DHT22;22958;51.232;6.826;2023-05-31T07:44:12;20.00;99.90
37050;DHT22;22958;51.232;6.826;2023-05-31T07:46:38;19.90;99.90
37050;DHT22;22958;51.232;6.826;2023-05-31T07:49:03;19.80;99.90
37050;DHT22;22958;51.232;6.826;2023-05-31T07:51:29;20.00;99.90
37050;DHT22;22958;51.232;6.826;2023-05-31T07:53:55;20.30;99.90
37050;DHT22;22958;51.232;6.826;2023-05-31T07:56:21;20.60;99.90
37050;DHT22;22958;51.232;6.826;2023-05-31T07:58:47;20.90;99.90
37050;DHT22;22958;51.232;6.826;2023-05-31T08:01:13;20.70;99.90
37050;DHT22;22958;51.232;6.826;2023-05-31T08:03:40;20.50;99.90
37050;DHT22;22958;51.232;6.826;2023-05-31T08:06:05;20.60;99.90
37050;DHT22;22958;51.232;6.826;2023-05-31T08:08:31;20.50;99.90
37050;DHT22;22958;51.232;6.826;2023-05-31T08:10:58;20.70;99.90
37050;DHT22;22958;51.232;6.826;2023-05-31T08:13:23;20.60;99.90
37050;DHT22;22958;51.232;6.826;2023-05-31T08:15:49;20.80;99.90
37050;DHT22;22958;51.232;6.826;2023-05-31T08:18:15;21.00;99.90
37050;DHT22;22958;51.232;6.826;2023-05-31T08:20:41;21.10;99.90
37050;DHT22;22958;51.232;6.826;2023-05-31T08:23:06;21.30;99.90
37050;DHT22;22958;51.232;6.826;2023-05-31T08:25:32;21.30;99.90
37050;DHT22;22958;51.232;6.826;2023-05-31T08:27:58;21.40;99.90
37050;DHT22;22958;51.232;6.826;2023-05-31T08:30:23;21.60;99.90
37050;DHT22;22958;51.232;6.826;2023-05-31T08:32:49;21.70;99.90
37050;DHT22;22958;51.232;6.826;2023-05-31T08:35:15;21.50;99.90
37050;DHT22;22958;51.232;6.826;2023-05-31T08:37:40;21.40;99.90
37050;DHT22;22958;51.232;6.826;2023-05-31T08:40:07;21.70;99.90
37050;DHT22;22958;51.232;6.826;2023-05-31T08:45:25;22.00;99.90
37050;DHT22;22958;51.232;6.826;2023-05-31T08:48:30;22.20;99.90
37050;DHT22;22958;51.232;6.826;2023-05-31T08:50:58;22.30;99.30
37050;DHT22;22958;51.232;6.826;2023-05-31T08:53:25;22.30;98.50
37050;DHT22;22958;51.232;6.826;2023-05-31T08:55:52;22.50;98.50
37050;DHT22;22958;51.232;6.826;2023-05-31T08:58:19;22.50;97.30
37050;DHT22;22958;51.232;6.826;2023-05-31T09:00:45;22.10;96.80
37050;DHT22;22958;51.232;6.826;2023-05-31T09:03:12;22.20;96.80
37050;DHT22;22958;51.232;6.826;2023-05-31T09:05:37;22.30;97.00
37050;DHT22;22958;51.232;6.826;2023-05-31T09:08:03;22.40;96.20
37050;DHT22;22958;51.232;6.826;2023-05-31T09:10:29;22.50;96.10
37050;DHT22;22958;51.232;6.826;2023-05-31T09:12:55;22.50;96.10
37050;DHT22;22958;51.232;6.826;2023-05-31T09:15:24;22.60;95.60
37050;DHT22;22958;51.232;6.826;2023-05-31T09:17:50;22.40;94.50
37050;DHT22;22958;51.232;6.826;2023-05-31T09:20:17;22.60;94.90
37050;DHT22;22958;51.232;6.826;2023-05-31T09:22:46;22.50;94.80
37050;DHT22;22958;51.232;6.826;2023-05-31T09:25:12;22.40;95.30
37050;DHT22;22958;51.232;6.826;2023-05-31T09:27:39;22.70;94.60
37050;DHT22;22958;51.232;6.826;2023-05-31T09:30:10;22.70;94.20
37050;DHT22;22958;51.232;6.826;2023-05-31T09:32:36;23.00;91.50
37050;DHT22;22958;51.232;6.826;2023-05-31T09:35:10;23.30;91.40
37050;DHT22;22958;51.232;6.826;2023-05-31T09:37:47;23.20;90.70
37050;DHT22;22958;51.232;6.826;2023-05-31T09:40:23;23.50;90.10
37050;DHT22;22958;51.232;6.826;2023-05-31T09:42:51;23.60;82.70
37050;DHT22;22958;51.232;6.826;2023-05-31T09:45:17;23.70;80.00
37050;DHT22;22958;51.232;6.826;2023-05-31T09:47:43;23.70;78.70
37050;DHT22;22958;51.232;6.826;2023-05-31T09:50:11;23.50;77.10
37050;DHT22;22958;51.232;6.826;2023-05-31T09:52:37;23.60;79.00
37050;DHT22;22958;51.232;6.826;2023-05-31T09:55:11;23.90;79.60
37050;DHT22;22958;51.232;6.826;2023-05-31T09:57:38;23.70;80.80
37050;DHT22;22958;51.232;6.826;2023-05-31T10:00:16;23.60;79.50
37050;DHT22;22958;51.232;6.826;2023-05-31T10:02:50;23.80;81.20
37050;DHT22;22958;51.232;6.826;2023-05-31T10:05:17;23.90;81.70
37050;DHT22;22958;51.232;6.826;2023-05-31T10:07:45;23.70;79.50
37050;DHT22;22958;51.232;6.826;2023-05-31T10:10:11;23.70;77.80
37050;DHT22;22958;51.232;6.826;2023-05-31T10:12:45;23.70;75.00
37050;DHT22;22958;51.232;6.826;2023-05-31T10:15:16;23.60;71.40
37050;DHT22;22958;51.232;6.826;2023-05-31T10:17:47;23.70;69.80
37050;DHT22;22958;51.232;6.826;2023-05-31T10:20:16;23.70;71.40
37050;DHT22;22958;51.232;6.826;2023-05-31T10:22:43;23.80;72.20
37050;DHT22;22958;51.232;6.826;2023-05-31T10:25:17;23.70;71.60
37050;DHT22;22958;51.232;6.826;2023-05-31T10:27:50;23.60;72.10
37050;DHT22;22958;51.232;6.826;2023-05-31T10:30:17;24.00;72.80
37050;DHT22;22958;51.232;6.826;2023-05-31T10:32:55;23.90;73.60
37050;DHT22;22958;51.232;6.826;2023-05-31T10:35:25;23.80;73.40
37050;DHT22;22958;51.232;6.826;2023-05-31T10:37:51;23.80;72.80
37050;DHT22;22958;51.232;6.826;2023-05-31T10:40:27;23.80;73.30
37050;DHT22;22958;51.232;6.826;2023-05-31T10:43:14;23.50;75.30
37050;DHT22;22958;51.232;6.826;2023-05-31T10:45:46;23.80;76.70
37050;DHT22;22958;51.232;6.826;2023-05-31T10:48:30;24.00;75.50
37050;DHT22;22958;51.232;6.826;2023-05-31T10:51:03;24.00;73.00
37050;DHT22;22958;51.232;6.826;2023-05-31T10:53:36;23.80;74.00
37050;DHT22;22958;51.232;6.826;2023-05-31T10:56:06;23.90;73.60
37050;DHT22;22958;51.232;6.826;2023-05-31T10:58:40;24.20;74.40
37050;DHT22;22958;51.232;6.826;2023-05-31T11:01:17;24.20;74.10
37050;DHT22;22958;51.232;6.826;2023-05-31T11:03:51;24.60;73.90
37050;DHT22;22958;51.232;6.826;2023-05-31T11:06:37;24.80;72.70
37050;DHT22;22958;51.232;6.826;2023-05-31T11:14:06;26.30;68.00
37050;DHT22;22958;51.232;6.826;2023-05-31T11:19:32;28.60;63.80
37050;DHT22;22958;51.232;6.826;2023-05-31T11:22:09;28.70;62.20
37050;DHT22;22958;51.232;6.826;2023-05-31T11:24:39;28.70;58.00
37050;DHT22;22958;51.232;6.826;2023-05-31T11:27:11;29.80;57.20
37050;DHT22;22958;51.232;6.826;2023-05-31T11:29:55;31.10;55.10
37050;DHT22;22958;51.232;6.826;2023-05-31T11:32:53;29.70;53.00
37050;DHT22;22958;51.232;6.826;2023-05-31T11:35:14;29.90;53.70
37050;DHT22;22958;51.232;6.826;2023-05-31T11:37:41;30.30;53.10
37050;DHT22;22958;51.232;6.826;2023-05-31T11:40:10;31.30;51.00
37050;DHT22;22958;51.232;6.826;2023-05-31T11:42:41;31.50;49.20
37050;DHT22;22958;51.232;6.826;2023-05-31T11:45:09;32.00;48.60
37050;DHT22;22958;51.232;6.826;2023-05-31T11:50:15;31.20;47.90
37050;DHT22;22958;51.232;6.826;2023-05-31T11:52:45;31.60;47.80
37050;DHT22;22958;51.232;6.826;2023-05-31T11:55:11;31.80;47.10
37050;DHT22;22958;51.232;6.826;2023-05-31T11:57:44;32.00;47.00
37050;DHT22;22958;51.232;6.826;2023-05-31T12:00:11;31.30;46.40
37050;DHT22;22958;51.232;6.826;2023-05-31T12:02:44;30.60;46.40
37050;DHT22;22958;51.232;6.826;2023-05-31T12:05:13;30.30;47.80
37050;DHT22;22958;51.232;6.826;2023-05-31T12:07:39;31.80;46.40
37050;DHT22;22958;51.232;6.826;2023-05-31T12:10:05;32.80;45.30
37050;DHT22;22958;51.232;6.826;2023-05-31T12:12:32;32.40;44.50
37050;DHT22;22958;51.232;6.826;2023-05-31T12:14:58;32.50;44.20
37050;DHT22;22958;51.232;6.826;2023-05-31T12:17:25;32.70;44.40
37050;DHT22;22958;51.232;6.826;2023-05-31T12:19:50;32.50;44.10
37050;DHT22;22958;51.232;6.826;2023-05-31T12:22:16;32.70;44.00
37050;DHT22;22958;51.232;6.826;2023-05-31T12:24:48;33.00;43.40
37050;DHT22;22958;51.232;6.826;2023-05-31T12:27:15;34.30;42.20
37050;DHT22;22958;51.232;6.826;2023-05-31T12:29:41;32.50;42.80
37050;DHT22;22958;51.232;6.826;2023-05-31T12:32:07;32.90;43.40
37050;DHT22;22958;51.232;6.826;2023-05-31T12:34:37;33.40;42.00
37050;DHT22;22958;51.232;6.826;2023-05-31T12:37:05;33.40;41.70
37050;DHT22;22958;51.232;6.826;2023-05-31T12:39:30;33.20;41.50
37050;DHT22;22958;51.232;6.826;2023-05-31T12:41:57;33.90;41.00
37050;DHT22;22958;51.232;6.826;2023-05-31T12:44:23;33.40;40.60
37050;DHT22;22958;51.232;6.826;2023-05-31T12:46:51;33.70;40.60
37050;DHT22;22958;51.232;6.826;2023-05-31T12:49:20;33.10;42.40
37050;DHT22;22958;51.232;6.826;2023-05-31T12:51:47;32.90;41.00
37050;DHT22;22958;51.232;6.826;2023-05-31T12:54:15;33.40;41.10
37050;DHT22;22958;51.232;6.826;2023-05-31T12:56:42;34.50;40.50
37050;DHT22;22958;51.232;6.826;2023-05-31T12:59:08;34.10;39.00
37050;DHT22;22958;51.232;6.826;2023-05-31T13:01:35;34.30;39.80
37050;DHT22;22958;51.232;6.826;2023-05-31T13:04:01;34.10;38.60
37050;DHT22;22958;51.232;6.826;2023-05-31T13:06:26;34.20;38.90
37050;DHT22;22958;51.232;6.826;2023-05-31T13:08:52;34.10;38.50
37050;DHT22;22958;51.232;6.826;2023-05-31T13:11:17;33.30;39.10
37050;DHT22;22958;51.232;6.826;2023-05-31T13:13:43;33.20;39.40
37050;DHT22;22958;51.232;6.826;2023-05-31T13:16:08;33.90;38.20
37050;DHT22;22958;51.232;6.826;2023-05-31T13:18:34;34.20;38.30
37050;DHT22;22958;51.232;6.826;2023-05-31T13:21:00;34.50;38.40
37050;DHT22;22958;51.232;6.826;2023-05-31T13:23:25;34.80;38.60
37050;DHT22;22958;51.232;6.826;2023-05-31T13:25:51;34.80;38.00
37050;DHT22;22958;51.232;6.826;2023-05-31T13:28:17;35.60;37.60
37050;DHT22;22958;51.232;6.826;2023-05-31T13:30:43;35.80;37.20
37050;DHT22;22958;51.232;6.826;2023-05-31T13:33:08;36.00;36.70
37050;DHT22;22958;51.232;6.826;2023-05-31T13:35:34;35.00;36.60
37050;DHT22;22958;51.232;6.826;2023-05-31T13:38:01;34.20;37.10
37050;DHT22;22958;51.232;6.826;2023-05-31T13:40:27;32.90;37.90
37050;DHT22;22958;51.232;6.826;2023-05-31T13:42:53;33.40;38.00
37050;DHT22;22958;51.232;6.826;2023-05-31T13:45:18;34.20;37.20
37050;DHT22;22958;51.232;6.826;2023-05-31T13:47:44;35.30;37.30
37050;DHT22;22958;51.232;6.826;2023-05-31T13:50:10;36.50;36.50
37050;DHT22;22958;51.232;6.826;2023-05-31T13:52:35;36.40;35.00
37050;DHT22;22958;51.232;6.826;2023-05-31T13:55:01;35.80;35.70
37050;DHT22;22958;51.232;6.826;2023-05-31T13:57:26;35.50;34.90
37050;DHT22;22958;51.232;6.826;2023-05-31T13:59:52;34.90;36.10
37050;DHT22;22958;51.232;6.826;2023-05-31T14:02:18;35.10;37.00
37050;DHT22;22958;51.232;6.826;2023-05-31T14:04:43;33.50;37.80
37050;DHT22;22958;51.232;6.826;2023-05-31T14:07:09;33.50;38.20
37050;DHT22;22958;51.232;6.826;2023-05-31T14:09:34;33.80;37.90
37050;DHT22;22958;51.232;6.826;2023-05-31T14:12:00;33.00;38.20
37050;DHT22;22958;51.232;6.826;2023-05-31T14:14:26;33.80;38.00
37050;DHT22;22958;51.232;6.826;2023-05-31T14:16:52;33.10;37.50
37050;DHT22;22958;51.232;6.826;2023-05-31T14:19:18;33.20;38.20
37050;DHT22;22958;51.232;6.826;2023-05-31T14:21:43;33.70;38.00
37050;DHT22;22958;51.232;6.826;2023-05-31T14:24:09;34.00;38.60
37050;DHT22;22958;51.232;6.826;2023-05-31T14:26:34;33.70;38.40
37050;DHT22;22958;51.232;6.826;2023-05-31T14:29:00;33.60;38.20
37050;DHT22;22958;51.232;6.826;2023-05-31T14:31:27;34.10;37.80
37050;DHT22;22958;51.232;6.826;2023-05-31T14:33:52;34.60;37.20
37050;DHT22;22958;51.232;6.826;2023-05-31T14:36:18;34.00;37.30
37050;DHT22;22958;51.232;6.826;2023-05-31T14:38:43;34.00;36.90
37050;DHT22;22958;51.232;6.826;2023-05-31T14:41:09;33.00;37.60
37050;DHT22;22958;51.232;6.826;2023-05-31T14:43:34;32.70;38.20
37050;DHT22;22958;51.232;6.826;2023-05-31T14:46:00;32.40;38.60
37050;DHT22;22958;51.232;6.826;2023-05-31T14:48:25;32.00;39.00
37050;DHT22;22958;51.232;6.826;2023-05-31T14:50:51;32.00;39.80
37050;DHT22;22958;51.232;6.826;2023-05-31T14:53:16;31.80;40.20
37050;DHT22;22958;51.232;6.826;2023-05-31T14:55:41;32.10;39.80
37050;DHT22;22958;51.232;6.826;2023-05-31T14:58:07;31.80;39.50
37050;DHT22;22958;51.232;6.826;2023-05-31T15:00:32;31.30;40.50
37050;DHT22;22958;51.232;6.826;2023-05-31T15:02:58;31.10;41.20
37050;DHT22;22958;51.232;6.826;2023-05-31T15:05:23;31.20;41.40
37050;DHT22;22958;51.232;6.826;2023-05-31T15:07:49;31.50;41.70
37050;DHT22;22958;51.232;6.826;2023-05-31T15:10:14;30.90;42.40
37050;DHT22;22958;51.232;6.826;2023-05-31T15:12:40;30.70;43.60
37050;DHT22;22958;51.232;6.826;2023-05-31T15:15:05;30.60;44.20
37050;DHT22;22958;51.232;6.826;2023-05-31T15:17:31;30.60;44.00
37050;DHT22;22958;51.232;6.826;2023-05-31T15:19:57;30.80;44.10
37050;DHT22;22958;51.232;6.826;2023-05-31T15:22:22;30.40;45.00
37050;DHT22;22958;51.232;6.826;2023-05-31T15:24:47;30.10;45.40
37050;DHT22;22958;51.232;6.826;2023-05-31T15:27:13;29.90;45.60
37050;DHT22;22958;51.232;6.826;2023-05-31T15:29:39;30.30;45.60
37050;DHT22;22958;51.232;6.826;2023-05-31T15:32:05;30.80;45.30
37050;DHT22;22958;51.232;6.826;2023-05-31T15:34:32;31.20;44.80
37050;DHT22;22958;51.232;6.826;2023-05-31T15:36:58;31.00;44.70
37050;DHT22;22958;51.232;6.826;2023-05-31T15:39:23;30.60;44.40
37050;DHT22;22958;51.232;6.826;2023-05-31T15:41:49;30.50;44.90
37050;DHT22;22958;51.232;6.826;2023-05-31T15:44:15;30.50;45.60
37050;DHT22;22958;51.232;6.826;2023-05-31T15:46:41;30.50;45.50